Trail, Oregon
Current Conditions -  °F | °C
As of 5:53 PM on Tuesday 21 Oct 2014 (Local Time) from KMFR Reporting Station
Broken Clouds Broken Clouds  
Wind Chill: 63°   Ceiling: 11000
Heat Index: 63°   Visibility: 10mi
Dew Point: 42°   Wind: 0mph
Humidity: 46%   Direction: NA
Pressure: 30.01"   Gusts: NA
Location:  42.65°N, 122.81°W
Report Text: KMFR 220053Z 00000KT 10SM SCT060 BKN110 17/06 A3001 RMK AO2 SLP158 T01720056
Loading
Personal Weather Stations






























Interactive Weather Map New forecast layout! Learn more

10-Day Weather Forecast

Advertisements
Track Severe Weather on mobile